createdAt,value
2023-05-16T00:02:03.484Z,5.90
2023-05-16T00:04:33.138Z,4.97
2023-05-16T00:07:01.101Z,5.10
2023-05-16T00:09:29.012Z,4.90
2023-05-16T00:11:58.903Z,5.70
2023-05-16T00:14:27.356Z,5.03
2023-05-16T00:16:58.564Z,5.97
2023-05-16T00:19:27.671Z,5.30
2023-05-16T00:21:55.561Z,5.93
2023-05-16T00:24:23.437Z,5.63
2023-05-16T00:26:51.264Z,5.60
2023-05-16T00:29:20.464Z,5.97
2023-05-16T00:31:48.387Z,5.37
2023-05-16T00:34:16.327Z,5.50
2023-05-16T00:36:44.486Z,5.63
2023-05-16T00:39:12.791Z,5.60
2023-05-16T00:41:41.144Z,6.10
2023-05-16T00:44:09.344Z,5.40
2023-05-16T00:46:38.575Z,6.00
2023-05-16T00:49:06.546Z,5.80
2023-05-16T00:51:34.779Z,5.10
2023-05-16T00:54:03.200Z,5.63
2023-05-16T00:56:31.086Z,6.30
2023-05-16T00:59:00.612Z,5.90
2023-05-16T01:01:30.561Z,5.00
2023-05-16T01:04:01.335Z,5.70
2023-05-16T01:06:29.410Z,5.10
2023-05-16T01:08:57.219Z,6.90
2023-05-16T01:11:31.203Z,4.90
2023-05-16T01:14:07.722Z,5.70
2023-05-16T01:16:41.281Z,5.83
2023-05-16T01:19:22.348Z,5.70
2023-05-16T01:21:57.632Z,5.80
2023-05-16T01:24:35.536Z,5.63
2023-05-16T01:27:06.976Z,5.30
2023-05-16T01:29:35.140Z,6.10
2023-05-16T01:32:03.005Z,5.97
2023-05-16T01:34:30.955Z,5.40
2023-05-16T01:37:07.635Z,6.80
2023-05-16T01:39:42.631Z,5.57
2023-05-16T01:42:15.142Z,5.70
2023-05-16T01:44:49.083Z,5.90
2023-05-16T01:47:18.588Z,6.23
2023-05-16T01:49:52.286Z,6.60
2023-05-16T01:52:25.520Z,7.07
2023-05-16T01:54:55.894Z,5.90
2023-05-16T01:57:27.331Z,6.00
2023-05-16T01:59:55.265Z,6.80
2023-05-16T02:02:23.195Z,5.33
2023-05-16T02:04:51.968Z,5.30
2023-05-16T02:07:20.204Z,5.93
2023-05-16T02:09:48.024Z,6.30
2023-05-16T02:12:15.889Z,6.63
2023-05-16T02:14:45.502Z,6.87
2023-05-16T02:17:13.492Z,6.90
2023-05-16T02:19:41.364Z,6.30
2023-05-16T02:22:09.245Z,6.23
2023-05-16T02:24:37.303Z,7.13
2023-05-16T02:27:05.497Z,5.40
2023-05-16T02:29:33.338Z,6.30
2023-05-16T02:32:02.579Z,5.50
2023-05-16T02:34:30.448Z,5.90
2023-05-16T02:36:58.289Z,6.07
2023-05-16T02:39:26.362Z,5.70
2023-05-16T02:41:54.187Z,5.60
2023-05-16T02:44:22.061Z,5.23
2023-05-16T02:46:49.958Z,4.90
2023-05-16T02:49:19.263Z,6.30
2023-05-16T02:51:47.138Z,6.17
2023-05-16T02:54:15.176Z,6.00
2023-05-16T02:56:42.980Z,5.53
2023-05-16T02:59:10.939Z,6.00
2023-05-16T03:01:38.960Z,5.60
2023-05-16T03:04:07.108Z,6.13
2023-05-16T03:06:36.498Z,6.33
2023-05-16T03:09:04.490Z,4.67
2023-05-16T03:11:32.372Z,5.73
2023-05-16T03:14:01.706Z,5.73
2023-05-16T03:16:30.556Z,5.37
2023-05-16T03:18:58.561Z,6.00
2023-05-16T03:21:26.604Z,5.40
2023-05-16T03:23:56.215Z,6.27
2023-05-16T03:26:24.551Z,5.90
2023-05-16T03:28:52.774Z,5.53
2023-05-16T03:31:20.771Z,7.27
2023-05-16T03:33:48.695Z,5.90
2023-05-16T03:36:16.771Z,7.00
2023-05-16T03:38:44.697Z,6.40
2023-05-16T03:41:13.982Z,6.53
2023-05-16T03:43:42.358Z,6.70
2023-05-16T03:46:10.286Z,5.53
2023-05-16T03:48:38.180Z,6.30
2023-05-16T03:51:06.382Z,6.57
2023-05-16T03:53:34.264Z,5.63
2023-05-16T03:56:02.138Z,7.60
2023-05-16T03:58:31.418Z,8.27
2023-05-16T04:00:59.296Z,7.40
2023-05-16T04:03:28.743Z,8.20
2023-05-16T04:05:57.220Z,6.17
2023-05-16T04:08:25.750Z,5.97
2023-05-16T04:10:53.653Z,6.57
2023-05-16T04:13:21.625Z,6.50
2023-05-16T04:15:50.909Z,6.27
2023-05-16T04:18:18.872Z,7.70
2023-05-16T04:20:47.569Z,8.30
2023-05-16T04:23:15.493Z,7.30
2023-05-16T04:25:43.639Z,6.87
2023-05-16T04:28:11.935Z,6.53
2023-05-16T04:30:39.937Z,6.13
2023-05-16T04:33:09.230Z,6.40
2023-05-16T04:35:37.674Z,6.73
2023-05-16T04:38:06.304Z,7.50
2023-05-16T04:40:34.185Z,6.47
2023-05-16T04:43:02.073Z,6.00
2023-05-16T04:45:30.031Z,5.70
2023-05-16T04:47:58.004Z,5.57
2023-05-16T04:50:27.275Z,6.10
2023-05-16T04:52:56.474Z,4.90
2023-05-16T04:55:24.778Z,5.80
2023-05-16T04:57:52.933Z,5.43
2023-05-16T05:00:21.352Z,6.00
2023-05-16T05:02:49.383Z,5.73
2023-05-16T05:05:17.407Z,5.00
2023-05-16T05:07:46.762Z,4.20
2023-05-16T05:10:14.768Z,4.60
2023-05-16T05:12:42.713Z,4.33
2023-05-16T05:15:10.891Z,4.60
2023-05-16T05:17:38.917Z,5.70
2023-05-16T05:20:08.653Z,5.03
2023-05-16T05:22:36.556Z,6.03
2023-05-16T05:25:07.063Z,4.90
2023-05-16T05:27:34.912Z,4.77
2023-05-16T05:30:03.037Z,5.57
2023-05-16T05:32:31.221Z,4.80
2023-05-16T05:34:59.271Z,5.77
2023-05-16T05:37:27.816Z,5.53
2023-05-16T05:39:55.937Z,5.40
2023-05-16T05:42:25.124Z,4.70
2023-05-16T05:44:52.999Z,5.60
2023-05-16T05:47:21.648Z,6.10
2023-05-16T05:49:49.805Z,4.17
2023-05-16T05:52:17.744Z,6.17
2023-05-16T05:54:45.662Z,7.00
2023-05-16T05:57:13.508Z,6.83
2023-05-16T05:59:42.704Z,5.70
2023-05-16T06:02:12.381Z,6.90
2023-05-16T06:04:42.674Z,7.43
2023-05-16T06:07:10.560Z,7.10
2023-05-16T06:09:38.489Z,6.10
2023-05-16T06:12:07.092Z,5.50
2023-05-16T06:14:34.964Z,5.53
2023-05-16T06:17:04.305Z,6.47
2023-05-16T06:19:32.258Z,5.90
2023-05-16T06:22:00.206Z,6.10
2023-05-16T06:24:29.761Z,4.93
2023-05-16T06:26:58.142Z,7.13
2023-05-16T06:29:26.091Z,7.00
2023-05-16T06:31:54.158Z,8.00
2023-05-16T06:34:27.587Z,7.60
2023-05-16T06:36:56.119Z,8.07
2023-05-16T06:39:23.986Z,8.43
2023-05-16T06:41:53.170Z,6.50
2023-05-16T06:44:22.802Z,8.30
2023-05-16T06:46:51.246Z,7.63
2023-05-16T06:49:19.237Z,6.57
2023-05-16T06:51:48.466Z,6.80
2023-05-16T06:54:16.428Z,7.80
2023-05-16T06:56:44.568Z,5.60
2023-05-16T06:59:12.506Z,6.53
2023-05-16T07:01:41.238Z,5.57
2023-05-16T07:04:09.253Z,6.77
2023-05-16T07:06:37.227Z,8.23
2023-05-16T07:09:06.606Z,6.20
2023-05-16T07:11:34.549Z,6.30
2023-05-16T07:14:02.444Z,8.53
2023-05-16T07:16:30.494Z,7.60
2023-05-16T07:18:58.537Z,7.57
2023-05-16T07:21:26.607Z,8.40
2023-05-16T07:23:54.620Z,8.47
2023-05-16T07:26:24.028Z,7.37
2023-05-16T07:28:52.173Z,7.50
2023-05-16T07:31:20.821Z,5.90
2023-05-16T07:33:49.297Z,8.40
2023-05-16T07:36:17.872Z,7.70
2023-05-16T07:38:46.193Z,7.43
2023-05-16T07:41:14.166Z,8.60
2023-05-16T07:43:43.467Z,8.20
2023-05-16T07:46:12.215Z,7.10
2023-05-16T07:48:40.227Z,6.10
2023-05-16T07:51:08.217Z,5.83
2023-05-16T07:53:36.378Z,5.80
2023-05-16T07:56:04.443Z,5.60
2023-05-16T07:58:32.407Z,5.40
2023-05-16T08:01:01.759Z,7.20
2023-05-16T08:03:29.889Z,6.10
2023-05-16T08:05:58.090Z,6.07
2023-05-16T08:08:26.144Z,5.23
2023-05-16T08:10:54.038Z,6.30
2023-05-16T08:13:22.028Z,6.63
2023-05-16T08:15:50.097Z,6.80
2023-05-16T08:18:21.992Z,6.50
2023-05-16T08:20:51.250Z,6.47
2023-05-16T08:23:20.138Z,5.73
2023-05-16T08:25:48.388Z,6.47
2023-05-16T08:28:16.757Z,5.30
2023-05-16T08:30:46.411Z,5.70
2023-05-16T08:33:16.076Z,5.07
2023-05-16T08:35:46.254Z,6.30
2023-05-16T08:38:14.224Z,4.50
2023-05-16T08:40:42.792Z,5.77
2023-05-16T08:43:10.796Z,6.30
2023-05-16T08:45:38.984Z,5.60
2023-05-16T08:48:10.379Z,7.23
2023-05-16T08:50:39.814Z,6.37
2023-05-16T08:53:10.444Z,6.43
2023-05-16T08:55:40.549Z,5.67
2023-05-16T08:58:09.255Z,4.97
2023-05-16T09:00:37.437Z,5.00
2023-05-16T09:03:06.683Z,5.30
2023-05-16T09:05:35.709Z,4.53
2023-05-16T09:08:03.766Z,3.70
2023-05-16T09:10:33.052Z,3.10
2023-05-16T09:13:01.150Z,2.40
2023-05-16T09:15:34.320Z,2.30
2023-05-16T09:18:03.009Z,1.83
2023-05-16T09:20:31.360Z,1.57
2023-05-16T09:23:00.812Z,1.63
2023-05-16T09:25:32.249Z,1.37
2023-05-16T09:28:03.584Z,1.03
2023-05-16T09:30:34.109Z,1.37
2023-05-16T09:33:02.695Z,1.47
2023-05-16T09:35:43.768Z,1.20
2023-05-16T09:38:16.143Z,0.90
2023-05-16T09:40:44.284Z,0.90
2023-05-16T09:43:17.412Z,1.23
2023-05-16T09:45:48.735Z,0.90
2023-05-16T09:48:18.144Z,0.87
2023-05-16T09:50:52.771Z,0.60
2023-05-16T09:53:27.437Z,0.57
2023-05-16T09:56:02.268Z,0.83
2023-05-16T09:58:33.061Z,0.80
2023-05-16T10:01:01.381Z,0.70
2023-05-16T10:03:30.184Z,0.70
2023-05-16T10:05:58.451Z,0.60
2023-05-16T10:08:27.338Z,0.80
2023-05-16T10:10:57.593Z,1.00
2023-05-16T10:13:29.775Z,0.60
2023-05-16T10:16:00.773Z,0.77
2023-05-16T10:18:31.965Z,0.90
2023-05-16T10:21:08.331Z,0.90
2023-05-16T10:23:41.767Z,1.00
2023-05-16T10:26:10.830Z,1.37
2023-05-16T10:28:39.419Z,1.03
2023-05-16T10:31:09.493Z,1.37
2023-05-16T10:33:38.020Z,1.30
2023-05-16T10:36:06.985Z,1.67
2023-05-16T10:38:35.572Z,1.17
2023-05-16T10:41:04.005Z,1.77
2023-05-16T10:43:33.545Z,1.13
2023-05-16T10:46:05.401Z,1.30
2023-05-16T10:48:38.827Z,1.57
2023-05-16T10:51:34.761Z,1.00
2023-05-16T10:54:07.273Z,1.73
2023-05-16T10:56:35.880Z,1.73
2023-05-16T10:59:04.833Z,1.60
2023-05-16T11:01:35.155Z,1.20
2023-05-16T11:04:12.496Z,1.90
2023-05-16T11:06:51.079Z,2.63
2023-05-16T11:09:26.499Z,1.43
2023-05-16T11:12:04.174Z,1.50
2023-05-16T11:14:38.817Z,1.80
2023-05-16T11:17:11.960Z,1.37
2023-05-16T11:19:45.883Z,1.40
2023-05-16T11:22:25.142Z,2.63
2023-05-16T11:24:56.126Z,1.50
2023-05-16T11:27:26.748Z,1.73
2023-05-16T11:30:02.608Z,2.03
2023-05-16T11:32:32.573Z,1.60
2023-05-16T11:35:02.338Z,1.03
2023-05-16T11:37:30.333Z,2.00
2023-05-16T11:40:01.006Z,1.73
2023-05-16T11:42:31.965Z,2.70
2023-05-16T11:45:06.473Z,1.30
2023-05-16T11:47:34.605Z,1.60
2023-05-16T11:50:05.626Z,1.77
2023-05-16T11:52:34.131Z,2.00
2023-05-16T11:55:02.286Z,1.50
2023-05-16T11:57:30.358Z,1.50
2023-05-16T12:00:03.374Z,1.93
2023-05-16T12:02:31.420Z,2.00
2023-05-16T12:04:59.811Z,1.37
2023-05-16T12:07:31.039Z,2.30
2023-05-16T12:09:59.059Z,2.00
2023-05-16T12:12:26.959Z,1.40
2023-05-16T12:14:54.900Z,2.07
2023-05-16T12:17:23.481Z,1.70
2023-05-16T12:19:51.864Z,1.50
2023-05-16T12:22:20.925Z,1.77
2023-05-16T12:24:50.182Z,2.40
2023-05-16T12:27:23.182Z,1.63
2023-05-16T12:29:51.719Z,2.00
2023-05-16T12:32:19.971Z,2.20
2023-05-16T12:34:51.605Z,1.30
2023-05-16T12:37:20.431Z,1.77
2023-05-16T12:39:49.821Z,1.90
2023-05-16T12:42:17.757Z,1.83
2023-05-16T12:44:46.862Z,1.90
2023-05-16T12:47:15.004Z,1.50
2023-05-16T12:49:46.763Z,1.80
2023-05-16T12:52:23.274Z,1.20
2023-05-16T12:54:52.557Z,1.60
2023-05-16T12:57:20.853Z,1.60
2023-05-16T12:59:48.776Z,1.40
2023-05-16T13:02:16.817Z,1.70
2023-05-16T13:04:44.724Z,1.57
2023-05-16T13:07:13.043Z,2.10
2023-05-16T13:09:41.821Z,1.70
2023-05-16T13:12:11.556Z,1.70
2023-05-16T13:14:40.449Z,1.50
2023-05-16T13:17:11.851Z,1.90
2023-05-16T13:19:39.779Z,2.20
2023-05-16T13:22:07.889Z,1.30
2023-05-16T13:24:35.738Z,1.20
2023-05-16T13:27:03.795Z,1.90
2023-05-16T13:29:33.134Z,1.33
2023-05-16T13:32:01.060Z,1.30
2023-05-16T13:34:29.418Z,1.40
2023-05-16T13:36:57.304Z,1.10
2023-05-16T13:39:25.168Z,1.40
2023-05-16T13:41:53.304Z,1.37
2023-05-16T13:44:22.400Z,1.10
2023-05-16T13:46:51.878Z,1.10
2023-05-16T13:49:19.761Z,2.20
2023-05-16T13:51:47.973Z,1.20
2023-05-16T13:54:15.900Z,1.50
2023-05-16T13:56:43.773Z,1.13
2023-05-16T13:59:15.427Z,1.00
2023-05-16T14:01:46.539Z,1.30
2023-05-16T14:04:18.429Z,1.03
2023-05-16T14:06:46.546Z,1.37
2023-05-16T14:09:15.294Z,1.80
2023-05-16T14:11:43.221Z,1.30
2023-05-16T14:14:11.108Z,1.10
2023-05-16T14:16:39.032Z,1.33
2023-05-16T14:19:07.318Z,1.13
2023-05-16T14:21:37.567Z,1.30
2023-05-16T14:24:05.870Z,0.97
2023-05-16T14:26:33.784Z,1.93
2023-05-16T14:29:01.764Z,1.30
2023-05-16T14:31:29.942Z,1.00
2023-05-16T14:33:58.938Z,1.10
2023-05-16T14:36:26.865Z,0.90
2023-05-16T14:38:56.336Z,1.23
2023-05-16T14:41:24.285Z,1.07
2023-05-16T14:43:52.214Z,1.27
2023-05-16T14:46:20.133Z,0.90
2023-05-16T14:48:48.087Z,1.43
2023-05-16T14:51:16.675Z,0.97
2023-05-16T14:53:46.798Z,1.13
2023-05-16T14:56:16.553Z,0.83
2023-05-16T14:58:44.573Z,0.90
2023-05-16T15:01:12.530Z,1.13
2023-05-16T15:03:53.712Z,0.90
2023-05-16T15:06:23.560Z,1.33
2023-05-16T15:08:51.912Z,1.50
2023-05-16T15:11:21.816Z,1.77
2023-05-16T15:13:49.880Z,1.53
2023-05-16T15:16:18.145Z,1.00
2023-05-16T15:18:46.138Z,1.23
2023-05-16T15:21:14.042Z,1.10
2023-05-16T15:23:42.353Z,1.40
2023-05-16T15:26:10.228Z,0.80
2023-05-16T15:28:40.374Z,1.20
2023-05-16T15:31:08.244Z,1.13
2023-05-16T15:33:36.171Z,1.17
2023-05-16T15:36:04.834Z,1.10
2023-05-16T15:38:32.740Z,1.10
2023-05-16T15:41:15.881Z,2.40
2023-05-16T15:43:50.482Z,1.37
2023-05-16T15:46:18.491Z,0.97
2023-05-16T15:48:46.428Z,1.10
2023-05-16T15:51:15.869Z,1.53
2023-05-16T15:53:44.736Z,1.30
2023-05-16T15:56:12.630Z,1.60
2023-05-16T15:58:40.577Z,1.37
2023-05-16T16:01:09.901Z,0.90
2023-05-16T16:03:37.918Z,1.33
2023-05-16T16:06:06.260Z,1.30
2023-05-16T16:08:34.230Z,1.13
2023-05-16T16:11:02.163Z,1.00
2023-05-16T16:13:31.035Z,1.40
2023-05-16T16:15:59.052Z,1.40
2023-05-16T16:18:28.446Z,0.70
2023-05-16T16:20:56.427Z,0.97
2023-05-16T16:23:24.484Z,1.17
2023-05-16T16:25:53.021Z,1.40
2023-05-16T16:28:22.595Z,3.70
2023-05-16T16:30:51.325Z,1.83
2023-05-16T16:33:19.657Z,1.80
2023-05-16T16:35:48.944Z,1.70
2023-05-16T16:38:17.550Z,1.00
2023-05-16T16:40:45.764Z,1.70
2023-05-16T16:43:13.990Z,1.00
2023-05-16T16:45:42.018Z,0.90
2023-05-16T16:48:10.777Z,1.20
2023-05-16T16:50:38.796Z,1.10
2023-05-16T16:53:08.111Z,1.70
2023-05-16T16:55:37.780Z,1.20
2023-05-16T16:58:07.289Z,1.30
2023-05-16T17:00:35.192Z,1.37
2023-05-16T17:03:04.689Z,1.07
2023-05-16T17:05:32.735Z,1.17
2023-05-16T17:08:00.677Z,1.43
2023-05-16T17:10:30.252Z,0.70
2023-05-16T17:13:03.199Z,1.30
2023-05-16T17:15:31.153Z,1.80
2023-05-16T17:17:59.347Z,0.97
2023-05-16T17:20:27.423Z,1.07
2023-05-16T17:22:55.354Z,1.10
2023-05-16T17:25:23.247Z,1.10
2023-05-16T17:27:52.538Z,1.53
2023-05-16T17:30:20.505Z,0.70
2023-05-16T17:32:48.446Z,0.90
2023-05-16T17:35:16.380Z,1.20
2023-05-16T17:37:44.265Z,1.13
2023-05-16T17:40:16.874Z,1.17
2023-05-16T17:42:45.825Z,1.07
2023-05-16T17:45:16.401Z,0.80
2023-05-16T17:47:44.653Z,1.00
2023-05-16T17:50:12.776Z,1.27
2023-05-16T17:52:40.708Z,1.10
2023-05-16T17:55:10.744Z,0.83
2023-05-16T17:57:38.878Z,1.30
2023-05-16T18:00:07.995Z,0.90
2023-05-16T18:02:38.578Z,0.83
2023-05-16T18:05:08.611Z,0.97
2023-05-16T18:07:37.296Z,0.87
2023-05-16T18:10:06.165Z,0.90
2023-05-16T18:12:34.879Z,1.07
2023-05-16T18:15:03.836Z,0.90
2023-05-16T18:17:31.830Z,0.90
2023-05-16T18:20:09.498Z,0.70
2023-05-16T18:22:38.087Z,1.00
2023-05-16T18:25:07.469Z,1.17
2023-05-16T18:27:35.448Z,1.20
2023-05-16T18:30:04.464Z,1.00
2023-05-16T18:32:32.679Z,1.00
2023-05-16T18:35:02.057Z,1.10
2023-05-16T18:37:29.971Z,1.00
2023-05-16T18:39:57.851Z,0.40
2023-05-16T18:42:27.249Z,1.00
2023-05-16T18:44:55.405Z,0.90
2023-05-16T18:47:23.531Z,0.70
2023-05-16T18:49:52.804Z,0.97
2023-05-16T18:52:22.232Z,0.80
2023-05-16T18:54:50.740Z,0.70
2023-05-16T18:57:18.913Z,0.73
2023-05-16T18:59:46.950Z,0.80
2023-05-16T19:02:14.844Z,0.90
2023-05-16T19:04:42.828Z,1.77
2023-05-16T19:07:10.822Z,0.90
2023-05-16T19:09:40.743Z,0.83
2023-05-16T19:12:09.064Z,0.90
2023-05-16T19:14:37.334Z,0.87
2023-05-16T19:17:06.494Z,0.90
2023-05-16T19:19:34.570Z,0.93
2023-05-16T19:22:02.608Z,0.70
2023-05-16T19:24:30.497Z,1.30
2023-05-16T19:26:59.795Z,0.73
2023-05-16T19:29:27.739Z,0.70
2023-05-16T19:31:55.959Z,0.70
2023-05-16T19:34:26.569Z,0.93
2023-05-16T19:36:55.227Z,1.40
2023-05-16T19:39:23.102Z,0.83
2023-05-16T19:41:52.119Z,1.03
2023-05-16T19:44:21.681Z,0.60
2023-05-16T19:46:49.564Z,1.20
2023-05-16T19:49:20.028Z,1.03
2023-05-16T19:51:48.469Z,0.97
2023-05-16T19:54:16.423Z,0.77
2023-05-16T19:56:44.321Z,1.23
2023-05-16T19:59:12.160Z,1.03
2023-05-16T20:04:09.405Z,1.33
2023-05-16T20:06:37.536Z,0.93
2023-05-16T20:09:06.164Z,1.03
2023-05-16T20:11:34.192Z,0.73
2023-05-16T20:14:02.083Z,0.87
2023-05-16T20:16:29.958Z,1.00
2023-05-16T20:18:59.607Z,0.70
2023-05-16T20:21:27.636Z,0.70
2023-05-16T20:23:55.500Z,0.80
2023-05-16T20:26:23.347Z,0.80
2023-05-16T20:28:51.253Z,0.90
2023-05-16T20:31:19.215Z,1.07
2023-05-16T20:33:47.716Z,0.87
2023-05-16T20:36:16.983Z,0.70
2023-05-16T20:38:44.868Z,0.70
2023-05-16T20:41:12.763Z,1.10
2023-05-16T20:43:40.670Z,1.40
2023-05-16T20:46:08.630Z,0.87
2023-05-16T20:48:36.535Z,1.23
2023-05-16T20:51:04.658Z,0.90
2023-05-16T20:53:33.927Z,0.90
2023-05-16T20:56:01.768Z,0.90
2023-05-16T20:58:29.622Z,0.90
2023-05-16T21:00:57.533Z,0.70
2023-05-16T21:03:25.535Z,0.87
2023-05-16T21:05:53.630Z,1.00
2023-05-16T21:08:21.659Z,1.17
2023-05-16T21:10:51.062Z,0.97
2023-05-16T21:13:19.268Z,1.03
2023-05-16T21:15:47.161Z,0.93
2023-05-16T21:18:15.072Z,1.00
2023-05-16T21:20:43.223Z,0.80
2023-05-16T21:23:11.275Z,0.70
2023-05-16T21:25:41.099Z,0.63
2023-05-16T21:28:10.382Z,0.93
2023-05-16T21:30:38.273Z,0.70
2023-05-16T21:33:06.259Z,0.70
2023-05-16T21:35:34.293Z,1.33
2023-05-16T21:38:02.212Z,0.90
2023-05-16T21:40:30.872Z,0.87
2023-05-16T21:42:58.746Z,0.80
2023-05-16T21:45:28.176Z,0.70
2023-05-16T21:47:56.325Z,0.90
2023-05-16T21:50:24.264Z,0.60
2023-05-16T21:52:52.126Z,0.50
2023-05-16T21:55:20.040Z,0.70
2023-05-16T21:57:48.122Z,0.90
2023-05-16T22:00:17.302Z,0.93
2023-05-16T22:02:48.585Z,0.83
2023-05-16T22:05:19.109Z,0.53
2023-05-16T22:07:47.074Z,0.90
2023-05-16T22:10:15.009Z,0.93
2023-05-16T22:12:42.908Z,0.70
2023-05-16T22:15:28.504Z,0.83
2023-05-16T22:17:58.497Z,0.57
2023-05-16T22:20:26.776Z,0.83
2023-05-16T22:22:54.658Z,0.80
2023-05-16T22:25:22.572Z,0.70
2023-05-16T22:27:50.614Z,0.80
2023-05-16T22:30:18.766Z,0.70
2023-05-16T22:32:47.022Z,0.77
2023-05-16T22:35:16.430Z,0.93
2023-05-16T22:37:44.338Z,1.17
2023-05-16T22:40:12.806Z,0.80
2023-05-16T22:42:40.673Z,1.00
2023-05-16T22:45:09.493Z,0.67
2023-05-16T22:47:37.349Z,0.77
2023-05-16T22:50:05.930Z,1.00
2023-05-16T22:52:35.674Z,0.90
2023-05-16T22:55:03.558Z,0.93
2023-05-16T22:57:31.535Z,0.70
2023-05-16T23:00:00.210Z,0.73
2023-05-16T23:02:28.171Z,0.90
2023-05-16T23:04:56.218Z,0.60
2023-05-16T23:07:24.196Z,1.00
2023-05-16T23:09:53.409Z,1.10
2023-05-16T23:12:21.619Z,0.97
2023-05-16T23:14:49.525Z,1.00
2023-05-16T23:17:17.465Z,0.63
2023-05-16T23:19:45.364Z,0.70
2023-05-16T23:22:13.250Z,0.70
2023-05-16T23:24:41.081Z,1.00
2023-05-16T23:27:10.292Z,1.00
2023-05-16T23:29:38.164Z,1.00
2023-05-16T23:32:06.340Z,1.90
2023-05-16T23:34:34.229Z,1.17
2023-05-16T23:37:02.093Z,0.90
2023-05-16T23:39:29.996Z,0.93
2023-05-16T23:41:58.720Z,0.67
2023-05-16T23:44:28.067Z,0.83
2023-05-16T23:46:55.937Z,0.90
2023-05-16T23:49:23.877Z,0.90
2023-05-16T23:51:57.817Z,1.30
2023-05-16T23:54:26.535Z,0.93
2023-05-16T23:56:54.491Z,1.17
2023-05-16T23:59:22.424Z,1.00
